createdAt,value
2022-12-08T00:01:14.615Z,100740.44
2022-12-08T00:03:42.247Z,100738.03
2022-12-08T00:06:42.581Z,100727.22
2022-12-08T00:09:23.468Z,100729.00
2022-12-08T00:11:52.844Z,100732.59
2022-12-08T00:14:22.979Z,100733.84
2022-12-08T00:16:50.296Z,100732.44
2022-12-08T00:19:33.131Z,100723.81
2022-12-08T00:22:00.560Z,100731.41
2022-12-08T00:24:31.415Z,100734.59
2022-12-08T00:26:58.672Z,100730.44
2022-12-08T00:29:27.494Z,100737.75
2022-12-08T00:31:54.584Z,100744.81
2022-12-08T00:34:21.572Z,100743.31
2022-12-08T00:36:48.794Z,100736.75
2022-12-08T00:39:17.524Z,100742.47
2022-12-08T00:42:03.610Z,100737.00
2022-12-08T00:44:31.863Z,100735.72
2022-12-08T00:46:59.145Z,100736.75
2022-12-08T00:49:26.059Z,100736.13
2022-12-08T00:51:53.382Z,100740.66
2022-12-08T00:54:20.837Z,100737.06
2022-12-08T00:56:48.438Z,100732.25
2022-12-08T00:59:15.927Z,100740.50
2022-12-08T01:01:46.579Z,100739.69
2022-12-08T01:04:15.772Z,100739.69
2022-12-08T01:06:43.814Z,100735.50
2022-12-08T01:09:12.650Z,100740.63
2022-12-08T01:11:39.840Z,100747.63
2022-12-08T01:14:06.695Z,100741.28
2022-12-08T01:16:36.054Z,100743.81
2022-12-08T01:19:04.681Z,100739.19
2022-12-08T01:21:32.660Z,100734.53
2022-12-08T01:24:00.446Z,100732.66
2022-12-08T01:26:27.856Z,100736.13
2022-12-08T01:28:54.978Z,100728.53
2022-12-08T01:31:22.885Z,100717.47
2022-12-08T01:33:50.360Z,100718.41
2022-12-08T01:36:22.349Z,100725.47
2022-12-08T01:38:49.714Z,100721.13
2022-12-08T01:41:19.315Z,100714.91
2022-12-08T01:43:56.221Z,100717.56
2022-12-08T01:46:23.998Z,100711.66
2022-12-08T01:48:53.272Z,100712.72
2022-12-08T01:51:22.105Z,100719.69
2022-12-08T01:53:49.913Z,100716.81
2022-12-08T01:56:23.782Z,100705.53
2022-12-08T01:58:54.983Z,100703.66
2022-12-08T02:01:22.667Z,100703.97
2022-12-08T02:03:55.229Z,100698.38
2022-12-08T02:06:24.472Z,100701.97
2022-12-08T02:08:52.061Z,100696.47
2022-12-08T02:11:19.234Z,100695.19
2022-12-08T02:13:47.771Z,100703.63
2022-12-08T02:16:24.976Z,100696.88
2022-12-08T02:22:08.844Z,100700.66
2022-12-08T02:24:40.734Z,100693.84
2022-12-08T02:27:32.755Z,100697.28
2022-12-08T02:30:19.889Z,100686.00
2022-12-08T02:33:21.891Z,100685.66
2022-12-08T02:35:57.436Z,100678.41
2022-12-08T02:38:36.699Z,100683.97
2022-12-08T02:41:13.975Z,100684.63
2022-12-08T02:43:44.252Z,100682.94
2022-12-08T02:46:16.616Z,100685.97
2022-12-08T02:48:44.055Z,100686.25
2022-12-08T02:51:12.348Z,100689.00
2022-12-08T02:53:40.488Z,100677.84
2022-12-08T02:56:17.250Z,100680.34
2022-12-08T02:59:09.874Z,100681.50
2022-12-08T03:01:51.457Z,100686.53
2022-12-08T03:04:26.358Z,100676.06
2022-12-08T03:07:03.498Z,100681.09
2022-12-08T03:09:36.443Z,100691.16
2022-12-08T03:12:09.903Z,100688.84
2022-12-08T03:14:40.117Z,100696.19
2022-12-08T03:17:08.362Z,100687.50
2022-12-08T03:19:39.351Z,100687.94
2022-12-08T03:22:08.396Z,100689.63
2022-12-08T03:24:40.391Z,100687.97
2022-12-08T03:27:09.823Z,100688.22
2022-12-08T03:29:37.324Z,100695.91
2022-12-08T03:32:14.118Z,100681.34
2022-12-08T03:34:46.952Z,100676.09
2022-12-08T03:37:15.682Z,100680.31
2022-12-08T03:39:43.049Z,100668.16
2022-12-08T03:42:09.989Z,100676.84
2022-12-08T03:44:37.245Z,100674.78
2022-12-08T03:47:04.305Z,100664.78
2022-12-08T03:49:31.636Z,100667.78
2022-12-08T03:51:58.629Z,100669.19
2022-12-08T03:54:27.361Z,100661.19
2022-12-08T03:56:54.328Z,100672.81
2022-12-08T03:59:21.547Z,100670.28
2022-12-08T04:01:48.505Z,100679.66
2022-12-08T04:04:15.639Z,100683.50
2022-12-08T04:06:42.622Z,100678.97
2022-12-08T04:09:10.071Z,100676.78
2022-12-08T04:11:38.266Z,100668.16
2022-12-08T04:14:05.405Z,100658.75
2022-12-08T04:16:32.320Z,100653.28
2022-12-08T04:19:01.140Z,100654.88
2022-12-08T04:21:28.289Z,100656.38
2022-12-08T04:24:00.856Z,100659.75
2022-12-08T04:26:28.391Z,100659.75
2022-12-08T04:28:57.224Z,100656.88
2022-12-08T04:31:24.211Z,100648.19
2022-12-08T04:33:51.436Z,100655.47
2022-12-08T04:36:18.428Z,100650.31
2022-12-08T04:38:45.676Z,100648.53
2022-12-08T04:41:12.526Z,100629.97
2022-12-08T04:43:41.048Z,100651.16
2022-12-08T04:46:09.590Z,100650.72
2022-12-08T04:48:39.217Z,100635.81
2022-12-08T04:51:06.732Z,100648.94
2022-12-08T04:53:34.076Z,100651.97
2022-12-08T04:56:00.940Z,100653.50
2022-12-08T04:58:28.554Z,100642.13
2022-12-08T05:00:55.559Z,100635.53
2022-12-08T05:03:28.574Z,100636.00
2022-12-08T05:05:55.929Z,100641.25
2022-12-08T05:08:23.447Z,100636.56
2022-12-08T05:10:50.360Z,100639.81
2022-12-08T05:13:20.317Z,100630.66
2022-12-08T05:15:49.185Z,100634.03
2022-12-08T05:18:16.550Z,100637.25
2022-12-08T05:20:44.889Z,100628.50
2022-12-08T05:23:14.945Z,100630.84
2022-12-08T05:25:44.809Z,100632.88
2022-12-08T05:28:40.077Z,100623.59
2022-12-08T05:31:01.068Z,100628.66
2022-12-08T05:33:29.363Z,100628.25
2022-12-08T05:35:57.613Z,100626.66
2022-12-08T05:38:24.915Z,100621.88
2022-12-08T05:40:51.851Z,100618.75
2022-12-08T05:43:19.102Z,100619.81
2022-12-08T05:45:46.017Z,100629.78
2022-12-08T05:48:13.314Z,100625.09
2022-12-08T05:50:40.337Z,100626.22
2022-12-08T05:53:08.896Z,100633.28
2022-12-08T05:55:35.822Z,100628.03
2022-12-08T05:58:07.819Z,100624.34
2022-12-08T06:00:35.100Z,100631.84
2022-12-08T06:03:02.457Z,100633.53
2022-12-08T06:05:29.425Z,100635.13
2022-12-08T06:07:56.792Z,100644.69
2022-12-08T06:10:25.113Z,100644.31
2022-12-08T06:12:52.457Z,100623.16
2022-12-08T06:15:19.402Z,100640.22
2022-12-08T06:17:46.644Z,100639.84
2022-12-08T06:20:13.618Z,100642.00
2022-12-08T06:22:40.887Z,100640.13
2022-12-08T06:25:10.130Z,100642.19
2022-12-08T06:27:39.022Z,100642.47
2022-12-08T06:30:07.490Z,100636.66
2022-12-08T06:32:35.857Z,100647.25
2022-12-08T06:35:02.756Z,100631.41
2022-12-08T06:37:30.277Z,100639.94
2022-12-08T06:39:57.103Z,100636.28
2022-12-08T06:42:42.986Z,100631.88
2022-12-08T06:45:12.927Z,100637.50
2022-12-08T06:47:40.703Z,100633.84
2022-12-08T06:50:09.978Z,100628.59
2022-12-08T06:52:45.703Z,100631.22
2022-12-08T06:55:35.390Z,100638.19
2022-12-08T06:58:03.991Z,100643.97
2022-12-08T07:00:32.420Z,100641.09
2022-12-08T07:02:59.574Z,100636.59
2022-12-08T07:05:29.001Z,100647.75
2022-12-08T07:07:56.690Z,100652.91
2022-12-08T07:10:25.157Z,100648.41
2022-12-08T07:12:52.421Z,100648.56
2022-12-08T07:15:19.784Z,100644.63
2022-12-08T07:17:48.684Z,100661.91
2022-12-08T07:20:15.850Z,100654.72
2022-12-08T07:22:48.589Z,100650.31
2022-12-08T07:25:15.634Z,100659.78
2022-12-08T07:27:43.149Z,100662.41
2022-12-08T07:30:10.672Z,100654.22
2022-12-08T07:32:38.308Z,100646.06
2022-12-08T07:35:08.398Z,100636.28
2022-12-08T07:37:37.594Z,100638.06
2022-12-08T07:40:08.495Z,100640.31
2022-12-08T07:42:35.916Z,100643.31
2022-12-08T07:45:04.324Z,100647.56
2022-12-08T07:47:31.741Z,100639.94
2022-12-08T07:49:58.863Z,100633.63
2022-12-08T07:52:27.420Z,100635.97
2022-12-08T07:54:54.307Z,100631.66
2022-12-08T07:57:21.447Z,100621.91
2022-12-08T07:59:48.672Z,100615.78
2022-12-08T08:02:24.687Z,100618.31
2022-12-08T08:04:52.838Z,100620.97
2022-12-08T08:07:20.063Z,100614.88
2022-12-08T08:09:48.335Z,100616.25
2022-12-08T08:12:32.291Z,100619.19
2022-12-08T08:15:00.501Z,100626.97
2022-12-08T08:17:31.066Z,100624.06
2022-12-08T08:19:58.041Z,100629.41
2022-12-08T08:22:25.775Z,100636.50
2022-12-08T08:24:54.190Z,100630.69
2022-12-08T08:27:21.575Z,100637.66
2022-12-08T08:29:53.136Z,100637.56
2022-12-08T08:32:20.549Z,100650.31
2022-12-08T08:34:47.497Z,100628.84
2022-12-08T08:37:14.638Z,100638.56
2022-12-08T08:39:43.097Z,100650.06
2022-12-08T08:42:11.941Z,100654.69
2022-12-08T08:44:39.089Z,100651.41
2022-12-08T08:47:06.442Z,100648.56
2022-12-08T08:49:33.387Z,100633.72
2022-12-08T08:52:00.631Z,100645.84
2022-12-08T08:54:29.386Z,100634.44
2022-12-08T08:56:57.656Z,100620.88
2022-12-08T08:59:27.329Z,100631.94
2022-12-08T09:01:55.325Z,100630.16
2022-12-08T09:04:23.317Z,100619.31
2022-12-08T09:06:50.561Z,100616.03
2022-12-08T09:09:17.737Z,100605.59
2022-12-08T09:11:45.152Z,100604.63
2022-12-08T09:14:12.432Z,100600.00
2022-12-08T09:16:42.510Z,100608.84
2022-12-08T09:19:10.105Z,100593.22
2022-12-08T09:21:40.371Z,100585.41
2022-12-08T09:24:10.584Z,100572.16
2022-12-08T09:26:37.844Z,100569.06
2022-12-08T09:29:04.783Z,100569.41
2022-12-08T09:31:34.122Z,100563.81
2022-12-08T09:34:10.511Z,100550.03
2022-12-08T09:36:38.149Z,100546.38
2022-12-08T09:39:06.283Z,100539.72
2022-12-08T09:41:42.069Z,100536.38
2022-12-08T09:44:34.664Z,100525.13
2022-12-08T09:47:05.624Z,100505.00
2022-12-08T09:49:39.841Z,100490.50
2022-12-08T09:52:22.258Z,100479.22
2022-12-08T09:54:51.870Z,100466.44
2022-12-08T09:57:25.504Z,100472.59
2022-12-08T09:59:59.791Z,100482.06
2022-12-08T10:02:30.210Z,100487.50
2022-12-08T10:04:59.491Z,100494.84
2022-12-08T10:07:33.924Z,100492.34
2022-12-08T10:10:07.820Z,100487.19
2022-12-08T10:12:44.304Z,100496.59
2022-12-08T10:15:34.138Z,100502.94
2022-12-08T10:18:03.928Z,100492.63
2022-12-08T10:20:38.091Z,100492.84
2022-12-08T10:23:14.178Z,100487.59
2022-12-08T10:25:44.811Z,100481.81
2022-12-08T10:28:13.098Z,100489.88
2022-12-08T10:30:40.309Z,100493.00
2022-12-08T10:33:14.804Z,100492.38
2022-12-08T10:35:49.269Z,100486.03
2022-12-08T10:38:19.325Z,100474.00
2022-12-08T10:40:47.652Z,100472.06
2022-12-08T10:43:17.550Z,100472.50
2022-12-08T10:45:45.051Z,100467.94
2022-12-08T10:48:18.589Z,100477.91
2022-12-08T10:50:52.889Z,100466.22
2022-12-08T10:53:24.440Z,100451.63
2022-12-08T10:56:05.320Z,100450.66
2022-12-08T10:58:35.574Z,100457.16
2022-12-08T11:01:06.388Z,100454.16
2022-12-08T11:03:36.714Z,100452.69
2022-12-08T11:06:16.359Z,100443.00
2022-12-08T11:08:48.985Z,100435.91
2022-12-08T11:11:18.640Z,100435.81
2022-12-08T11:13:52.431Z,100425.75
2022-12-08T11:16:20.243Z,100431.19
2022-12-08T11:18:56.894Z,100417.72
2022-12-08T11:21:35.775Z,100411.34
2022-12-08T11:24:20.700Z,100413.94
2022-12-08T11:26:51.413Z,100410.97
2022-12-08T11:29:22.478Z,100404.59
2022-12-08T11:31:57.521Z,100402.66
2022-12-08T11:34:34.366Z,100398.34
2022-12-08T11:37:06.178Z,100396.97
2022-12-08T11:39:44.616Z,100398.91
2022-12-08T11:42:16.148Z,100395.00
2022-12-08T11:44:51.199Z,100385.78
2022-12-08T11:47:24.153Z,100385.31
2022-12-08T11:49:58.129Z,100367.81
2022-12-08T11:52:30.672Z,100381.31
2022-12-08T11:55:03.020Z,100386.63
2022-12-08T11:57:30.010Z,100386.63
2022-12-08T11:59:58.744Z,100385.31
2022-12-08T12:02:28.964Z,100378.19
2022-12-08T12:05:01.981Z,100364.28
2022-12-08T12:07:55.069Z,100375.94
2022-12-08T12:10:42.991Z,100365.84
2022-12-08T12:13:24.302Z,100359.59
2022-12-08T12:16:23.188Z,100342.44
2022-12-08T12:18:58.133Z,100349.38
2022-12-08T12:21:31.758Z,100341.06
2022-12-08T12:24:04.708Z,100336.16
2022-12-08T12:26:37.182Z,100329.28
2022-12-08T12:29:07.545Z,100322.19
2022-12-08T12:31:38.431Z,100314.34
2022-12-08T12:34:08.645Z,100305.44
2022-12-08T12:36:50.415Z,100302.97
2022-12-08T12:39:23.229Z,100289.28
2022-12-08T12:41:54.789Z,100276.00
2022-12-08T12:44:37.456Z,100280.06
2022-12-08T12:47:08.503Z,100287.16
2022-12-08T12:50:07.959Z,100285.97
2022-12-08T12:52:37.542Z,100293.78
2022-12-08T12:55:19.409Z,100296.63
2022-12-08T12:57:52.968Z,100287.41
2022-12-08T13:00:22.448Z,100300.84
2022-12-08T13:02:51.923Z,100303.97
2022-12-08T13:05:22.045Z,100295.94
2022-12-08T13:07:52.854Z,100296.56
2022-12-08T13:10:23.421Z,100289.59
2022-12-08T13:13:06.268Z,100272.97
2022-12-08T13:15:39.191Z,100286.50
2022-12-08T13:18:16.455Z,100259.72
2022-12-08T13:20:48.394Z,100279.72
2022-12-08T13:23:45.480Z,100274.44
2022-12-08T13:26:19.056Z,100271.34
2022-12-08T13:29:13.669Z,100270.81
2022-12-08T13:31:46.781Z,100272.50
2022-12-08T13:34:26.884Z,100264.25
2022-12-08T13:37:02.928Z,100266.16
2022-12-08T13:39:37.075Z,100270.47
2022-12-08T13:42:15.691Z,100267.59
2022-12-08T13:45:24.275Z,100259.53
2022-12-08T13:48:13.683Z,100266.63
2022-12-08T13:59:25.561Z,100271.78
2022-12-08T14:01:56.515Z,100278.16
2022-12-08T14:07:12.515Z,100266.66
2022-12-08T14:09:41.121Z,100273.31
2022-12-08T14:12:19.499Z,100273.31
2022-12-08T14:15:04.896Z,100264.41
2022-12-08T14:17:34.093Z,100272.69
2022-12-08T14:20:04.745Z,100268.09
2022-12-08T14:22:36.498Z,100269.06
2022-12-08T14:25:14.424Z,100256.09
2022-12-08T14:27:42.690Z,100266.66
2022-12-08T14:30:19.949Z,100267.56
2022-12-08T14:32:50.975Z,100271.06
2022-12-08T14:35:24.671Z,100276.50
2022-12-08T14:37:55.543Z,100276.66
2022-12-08T14:40:25.226Z,100281.19
2022-12-08T14:42:54.372Z,100288.16
2022-12-08T14:45:22.021Z,100286.47
2022-12-08T14:47:52.581Z,100281.97
2022-12-08T14:50:45.004Z,100277.63
2022-12-08T14:53:18.006Z,100290.94
2022-12-08T14:55:47.703Z,100293.09
2022-12-08T14:58:20.894Z,100288.88
2022-12-08T15:00:49.627Z,100286.09
2022-12-08T15:03:21.497Z,100277.47
2022-12-08T15:05:51.651Z,100285.50
2022-12-08T15:08:19.032Z,100290.09
2022-12-08T15:10:48.295Z,100287.72
2022-12-08T15:13:22.865Z,100282.66
2022-12-08T15:15:51.788Z,100286.16
2022-12-08T15:18:28.587Z,100290.09
2022-12-08T15:21:01.441Z,100283.72
2022-12-08T15:23:34.720Z,100280.59
2022-12-08T15:26:04.681Z,100285.78
2022-12-08T15:28:32.044Z,100284.81
2022-12-08T15:30:59.181Z,100285.31
2022-12-08T15:33:28.255Z,100284.59
2022-12-08T15:35:55.258Z,100280.28
2022-12-08T15:38:25.027Z,100285.34
2022-12-08T15:40:52.204Z,100274.78
2022-12-08T15:43:21.796Z,100276.00
2022-12-08T15:45:58.388Z,100283.06
2022-12-08T15:48:29.834Z,100275.50
2022-12-08T15:50:57.718Z,100277.44
2022-12-08T15:53:24.974Z,100273.25
2022-12-08T15:58:56.642Z,100288.25
2022-12-08T16:01:25.702Z,100283.09
2022-12-08T16:04:37.298Z,100272.78
2022-12-08T16:10:01.690Z,100249.66
2022-12-08T16:15:01.970Z,100248.19
2022-12-08T16:16:25.344Z,100209.34
2022-12-08T16:18:53.949Z,100246.03
2022-12-08T16:21:53.289Z,100253.38
2022-12-08T16:24:09.525Z,100257.47
2022-12-08T16:27:50.740Z,100268.13
2022-12-08T16:29:24.084Z,100267.88
2022-12-08T16:31:52.032Z,100272.44
2022-12-08T16:34:20.707Z,100279.72
2022-12-08T16:36:47.969Z,100268.34
2022-12-08T16:39:15.462Z,100269.81
2022-12-08T16:42:01.150Z,100270.78
2022-12-08T16:44:28.373Z,100272.66
2022-12-08T16:46:55.519Z,100268.13
2022-12-08T16:49:24.951Z,100268.25
2022-12-08T16:51:52.234Z,100268.34
2022-12-08T16:54:19.143Z,100260.69
2022-12-08T16:56:46.237Z,100259.59
2022-12-08T16:59:15.797Z,100259.34
2022-12-08T17:01:43.089Z,100258.28
2022-12-08T17:06:58.966Z,100265.81
2022-12-08T17:09:26.788Z,100261.81
2022-12-08T17:11:57.590Z,100278.63
2022-12-08T17:14:27.399Z,100277.06
2022-12-08T17:16:54.703Z,100284.16
2022-12-08T17:19:23.558Z,100271.41
2022-12-08T17:21:50.858Z,100278.75
2022-12-08T17:24:22.529Z,100271.28
2022-12-08T17:26:49.863Z,100267.09
2022-12-08T17:29:20.428Z,100270.31
2022-12-08T17:31:47.735Z,100268.97
2022-12-08T17:34:14.895Z,100274.53
2022-12-08T17:36:42.092Z,100268.53
2022-12-08T17:39:12.114Z,100271.78
2022-12-08T17:41:43.584Z,100271.38
2022-12-08T17:44:12.251Z,100271.97
2022-12-08T17:46:42.701Z,100271.59
2022-12-08T17:49:12.293Z,100269.81
2022-12-08T17:51:39.526Z,100271.72
2022-12-08T17:54:06.594Z,100275.41
2022-12-08T17:56:33.902Z,100269.88
2022-12-08T17:59:04.237Z,100266.56
2022-12-08T18:01:34.412Z,100265.94
2022-12-08T18:04:02.662Z,100274.59
2022-12-08T18:06:31.336Z,100274.09
2022-12-08T18:09:00.438Z,100271.56
2022-12-08T18:11:30.190Z,100281.44
2022-12-08T18:13:57.651Z,100282.59
2022-12-08T18:16:27.553Z,100286.34
2022-12-08T18:18:54.710Z,100283.97
2022-12-08T18:21:23.758Z,100285.91
2022-12-08T18:23:51.359Z,100283.97
2022-12-08T18:26:19.392Z,100279.44
2022-12-08T18:28:46.764Z,100280.88
2022-12-08T18:31:16.665Z,100279.66
2022-12-08T18:33:46.028Z,100285.78
2022-12-08T18:36:15.688Z,100284.22
2022-12-08T18:38:43.362Z,100273.59
2022-12-08T18:41:16.922Z,100286.31
2022-12-08T18:43:44.019Z,100275.84
2022-12-08T18:46:14.467Z,100290.31
2022-12-08T18:48:52.945Z,100292.09
2022-12-08T18:51:22.019Z,100287.78
2022-12-08T18:53:49.656Z,100293.66
2022-12-08T18:56:24.492Z,100290.50
2022-12-08T18:58:51.569Z,100297.47
2022-12-08T19:01:18.948Z,100296.63
2022-12-08T19:04:12.030Z,100289.56
2022-12-08T19:06:37.972Z,100301.06
2022-12-08T19:09:05.105Z,100302.25
2022-12-08T19:11:32.371Z,100294.56
2022-12-08T19:13:59.285Z,100288.94
2022-12-08T19:16:26.591Z,100290.16
2022-12-08T19:18:55.074Z,100283.47
2022-12-08T19:21:23.969Z,100293.19
2022-12-08T19:23:54.953Z,100296.41
2022-12-08T19:26:22.155Z,100301.13
2022-12-08T19:28:49.480Z,100302.28
2022-12-08T19:31:16.737Z,100301.19
2022-12-08T19:33:43.809Z,100302.28
2022-12-08T19:36:15.221Z,100312.22
2022-12-08T19:39:01.265Z,100320.81
2022-12-08T19:41:47.329Z,100302.03
2022-12-08T19:44:37.186Z,100317.13
2022-12-08T19:47:06.215Z,100309.28
2022-12-08T19:49:35.919Z,100312.16
2022-12-08T19:52:06.956Z,100309.50
2022-12-08T19:54:34.601Z,100318.03
2022-12-08T19:57:02.312Z,100315.00
2022-12-08T19:59:30.371Z,100317.91
2022-12-08T20:02:03.746Z,100326.47
2022-12-08T20:04:30.751Z,100327.13
2022-12-08T20:06:58.255Z,100339.94
2022-12-08T20:09:26.954Z,100331.97
2022-12-08T20:11:55.063Z,100325.47
2022-12-08T20:14:22.493Z,100322.53
2022-12-08T20:16:50.102Z,100322.81
2022-12-08T20:19:18.578Z,100333.13
2022-12-08T20:21:46.115Z,100341.88
2022-12-08T20:24:13.141Z,100345.03
2022-12-08T20:26:41.941Z,100337.16
2022-12-08T20:29:09.259Z,100342.34
2022-12-08T20:31:36.548Z,100314.66
2022-12-08T20:34:03.829Z,100344.16
2022-12-08T20:36:31.563Z,100348.22
2022-12-08T20:38:59.419Z,100344.47
2022-12-08T20:41:26.679Z,100334.34
2022-12-08T20:43:55.172Z,100338.84
2022-12-08T20:46:22.613Z,100334.06
2022-12-08T20:48:49.846Z,100350.16
2022-12-08T20:51:19.492Z,100347.25
2022-12-08T20:53:47.882Z,100360.22
2022-12-08T20:56:17.033Z,100365.66
2022-12-08T20:58:44.333Z,100379.72
2022-12-08T21:01:14.946Z,100366.63
2022-12-08T21:03:42.809Z,100370.66
2022-12-08T21:06:10.236Z,100368.59
2022-12-08T21:08:37.694Z,100376.53
2022-12-08T21:11:06.207Z,100377.41
2022-12-08T21:13:33.894Z,100371.41
2022-12-08T21:16:01.445Z,100368.88
2022-12-08T21:18:33.215Z,100372.50
2022-12-08T21:21:04.926Z,100368.41
2022-12-08T21:23:31.943Z,100374.56
2022-12-08T21:25:59.425Z,100378.31
2022-12-08T21:28:27.027Z,100381.06
2022-12-08T21:30:54.610Z,100369.78
2022-12-08T21:33:22.791Z,100379.91
2022-12-08T21:35:51.385Z,100383.44
2022-12-08T21:38:18.493Z,100375.22
2022-12-08T21:40:45.818Z,100383.28
2022-12-08T21:43:13.699Z,100378.13
2022-12-08T21:45:41.195Z,100392.31
2022-12-08T21:48:13.311Z,100388.56
2022-12-08T21:50:40.817Z,100382.28
2022-12-08T21:53:09.341Z,100373.66
2022-12-08T21:55:36.644Z,100367.38
2022-12-08T21:58:03.689Z,100367.66
2022-12-08T22:00:33.599Z,100361.78
2022-12-08T22:03:01.057Z,100361.41
2022-12-08T22:05:28.341Z,100379.22
2022-12-08T22:07:55.524Z,100389.94
2022-12-08T22:10:24.404Z,100398.84
2022-12-08T22:12:51.379Z,100392.97
2022-12-08T22:15:18.624Z,100391.22
2022-12-08T22:17:45.835Z,100393.22
2022-12-08T22:20:14.996Z,100397.31
2022-12-08T22:22:42.293Z,100387.53
2022-12-08T22:25:13.376Z,100371.19
2022-12-08T22:27:41.818Z,100387.41
2022-12-08T22:30:10.883Z,100385.59
2022-12-08T22:32:38.690Z,100378.59
2022-12-08T22:35:06.677Z,100386.44
2022-12-08T22:37:34.146Z,100380.03
2022-12-08T22:40:01.536Z,100377.97
2022-12-08T22:42:28.528Z,100390.94
2022-12-08T22:44:57.233Z,100378.50
2022-12-08T22:47:24.275Z,100379.97
2022-12-08T22:49:51.799Z,100376.13
2022-12-08T22:52:18.769Z,100376.94
2022-12-08T22:54:46.296Z,100373.38
2022-12-08T22:57:13.253Z,100367.66
2022-12-08T22:59:40.974Z,100353.28
2022-12-08T23:02:09.627Z,100354.72
2022-12-08T23:04:37.145Z,100381.38
2022-12-08T23:07:04.279Z,100387.53
2022-12-08T23:09:31.691Z,100382.06
2022-12-08T23:11:58.604Z,100389.06
2022-12-08T23:14:25.943Z,100376.66
2022-12-08T23:16:53.180Z,100375.63
2022-12-08T23:19:22.262Z,100367.94
2022-12-08T23:21:49.421Z,100374.91
2022-12-08T23:24:16.879Z,100369.38
2022-12-08T23:26:43.840Z,100373.53
2022-12-08T23:29:11.266Z,100372.03
2022-12-08T23:31:38.490Z,100379.69
2022-12-08T23:34:06.043Z,100387.75
2022-12-08T23:36:34.422Z,100374.53
2022-12-08T23:39:01.872Z,100392.66
2022-12-08T23:41:29.129Z,100383.63
2022-12-08T23:43:56.860Z,100390.00
2022-12-08T23:46:24.101Z,100394.63
2022-12-08T23:48:51.745Z,100404.09
2022-12-08T23:51:19.590Z,100391.56
2022-12-08T23:53:48.405Z,100399.25
2022-12-08T23:56:17.560Z,100400.53
2022-12-08T23:58:47.815Z,100400.41
